»·PEaware :: N771 0E0-KSAF

N771 :: 0E0-KSAF

FLIGHT INFORMATION

Flight Status: Arrived
Operator: Privately registered:
United States
More flights under this callsign
Pilot: Anonymous 25573 (25573)
Aircraft: PIPER PA-30 TWIN COMANCHE
(PA30)
More flights by this aircraft type
Origin: 0E0 Moriarty
United States
Destination: KSAF Santa Fe Mun
United States
More flights between these airports :: More routes between these airports
Route: OTO V83 CAYAL KSAF
File this flight plan on PilotEdge
Remarks:
Altitude:
(Current/Filed)
9,000ft
Speed:
(Current/Filed)
140kts
Departed: 13-Sep-20 05:06 PM
Arrived: 13-Sep-20 05:33 PM
Distance/Time
Traveled:
38nm/0:26
Distance/Time
To Go:
Arrived

Flight Plot

Page will automatically refresh every two minutes.

Flight plan parsing failed; only flown route is shown


Map Options




Map Legend


Flown Route
Filed Route
Departure Airport
Arrival Airport
Navaid (VOR, NDB)
Fix

Horizontal Profiles

Position Reports

Time Latitude Longitude Heading Altitude Ground
Speed
13-Sep-20 16:18 34.983245 -106.001837 169 6207ft 0kts
13-Sep-20 16:19 34.983245 -106.001837 169 6207ft 0kts
13-Sep-20 16:20 34.983245 -106.001837 169 6207ft 0kts
13-Sep-20 16:21 34.983245 -106.001837 169 6207ft 0kts
13-Sep-20 16:22 34.983126 -106.001731 114 6207ft 3kts
13-Sep-20 16:23 34.983093 -105.998636 90 6207ft 12kts
13-Sep-20 16:24 34.983075 -105.996514 89 6206ft 1kts
13-Sep-20 16:25 34.983086 -105.995806 88 6207ft 3kts
13-Sep-20 16:26 34.983085 -105.994622 95 6207ft 2kts
13-Sep-20 16:27 34.983064 -105.994191 92 6206ft 2kts
13-Sep-20 16:28 34.982934 -105.993425 121 6206ft 0kts
13-Sep-20 16:29 34.982934 -105.993425 121 6206ft 0kts
13-Sep-20 16:30 34.982934 -105.993425 121 6206ft 0kts
13-Sep-20 16:31 34.982934 -105.993425 121 6206ft 0kts
13-Sep-20 16:32 34.982934 -105.993425 121 6206ft 0kts
13-Sep-20 16:33 34.982934 -105.993425 121 6206ft 0kts
13-Sep-20 16:34 34.983085 -105.994164 271 6206ft 12kts
13-Sep-20 16:35 34.983097 -106.000940 268 6207ft 24kts
13-Sep-20 16:36 34.983119 -106.009432 268 6207ft 21kts
13-Sep-20 16:37 34.983143 -106.016080 268 6207ft 18kts
13-Sep-20 16:38 34.983235 -106.017437 218 6207ft 0kts
13-Sep-20 16:39 34.983235 -106.017437 218 6207ft 0kts
13-Sep-20 16:40 34.983235 -106.017437 218 6207ft 0kts
13-Sep-20 16:41 34.983235 -106.017437 218 6207ft 0kts
13-Sep-20 16:42 34.983235 -106.017437 218 6207ft 0kts
13-Sep-20 16:43 34.983235 -106.017437 218 6207ft 0kts
13-Sep-20 16:44 34.983235 -106.017437 218 6207ft 0kts
13-Sep-20 16:45 34.983235 -106.017437 218 6207ft 0kts
13-Sep-20 16:46 34.983235 -106.017437 218 6207ft 0kts
13-Sep-20 16:47 34.983235 -106.017437 218 6207ft 0kts
13-Sep-20 16:48 34.983235 -106.017437 218 6207ft 0kts
13-Sep-20 16:49 34.983235 -106.017437 218 6207ft 0kts
13-Sep-20 16:50 34.983235 -106.017437 218 6207ft 0kts
13-Sep-20 16:51 34.983235 -106.017437 218 6207ft 0kts
13-Sep-20 16:52 34.983235 -106.017437 218 6207ft 0kts
13-Sep-20 16:53 34.983235 -106.017437 218 6207ft 0kts
13-Sep-20 16:54 34.983235 -106.017437 218 6207ft 0kts
13-Sep-20 16:55 34.983235 -106.017437 218 6207ft 0kts
13-Sep-20 16:56 34.983235 -106.017437 218 6207ft 0kts
13-Sep-20 16:57 34.983235 -106.017437 218 6207ft 0kts
13-Sep-20 16:58 34.983235 -106.017437 218 6207ft 0kts
13-Sep-20 17:00 34.983235 -106.017437 218 6207ft 0kts
13-Sep-20 17:01 34.983235 -106.017437 218 6207ft 0kts
13-Sep-20 17:02 34.983235 -106.017437 218 6207ft 0kts
13-Sep-20 17:03 34.982875 -106.017844 190 6207ft 6kts
13-Sep-20 17:04 34.982016 -106.007259 42 6207ft 37kts
13-Sep-20 17:05 34.982691 -106.017377 272 6207ft 25kts
13-Sep-20 17:06 34.982248 -106.005340 92 6221ft 96kts
13-Sep-20 17:07 34.991411 -105.979645 35 6619ft 99kts
13-Sep-20 17:08 35.016520 -105.970680 25 7070ft 103kts
13-Sep-20 17:09 35.041760 -105.953460 44 7282ft 104kts
13-Sep-20 17:10 35.066358 -105.936967 3 7680ft 111kts
13-Sep-20 17:11 35.096147 -105.946254 347 8177ft 111kts
13-Sep-20 17:12 35.128399 -105.950884 0 8971ft 137kts
13-Sep-20 17:13 35.170661 -105.962219 340 9010ft 161kts
13-Sep-20 17:14 35.213285 -105.978110 351 8973ft 159kts
13-Sep-20 17:15 35.256521 -105.987722 352 8973ft 156kts
13-Sep-20 17:16 35.299393 -105.993163 345 8965ft 158kts
13-Sep-20 17:17 35.339307 -106.009990 347 9080ft 153kts
13-Sep-20 17:17 35.374744 -106.020352 345 8979ft 149kts
13-Sep-20 17:18 35.411481 -106.020552 39 8961ft 127kts
13-Sep-20 17:20 35.395534 -106.000460 165 9017ft 115kts
13-Sep-20 17:20 35.369841 -105.993117 165 8949ft 100kts
13-Sep-20 17:21 35.366248 -106.013821 331 8959ft 114kts
13-Sep-20 17:23 35.401549 -106.028167 350 8722ft 117kts
13-Sep-20 17:23 35.427722 -106.034752 348 8560ft 115kts
13-Sep-20 17:24 35.457838 -106.044281 346 8983ft 117kts
13-Sep-20 17:25 35.488625 -106.054704 340 8986ft 115kts
13-Sep-20 17:26 35.521464 -106.062752 351 8300ft 123kts
13-Sep-20 17:27 35.553646 -106.069989 352 8012ft 116kts
13-Sep-20 17:28 35.584475 -106.080416 1 6919ft 111kts
13-Sep-20 17:29 35.612346 -106.074372 36 7001ft 101kts
13-Sep-20 17:30 35.636183 -106.058607 335 7401ft 105kts
13-Sep-20 17:31 35.627971 -106.079292 207 6380ft 82kts
13-Sep-20 17:32 35.618065 -106.085822 138 6351ft 9kts
13-Sep-20 17:33 35.618609 -106.085299 317 6351ft 0kts
13-Sep-20 17:34 35.618609 -106.085299 317 6351ft 0kts
13-Sep-20 17:35 35.618609 -106.085299 317 6351ft 0kts
13-Sep-20 17:36 35.619649 -106.083226 67 6351ft 5kts
13-Sep-20 17:37 35.619921 -106.083246 311 6351ft 0kts
13-Sep-20 17:38 35.619921 -106.083246 311 6351ft 0kts
13-Sep-20 17:39 35.619921 -106.083246 311 6351ft 0kts
13-Sep-20 17:40 35.619921 -106.083246 311 6351ft 0kts
13-Sep-20 17:41 35.619921 -106.083246 311 6351ft 0kts
13-Sep-20 17:42 35.619921 -106.083246 311 6351ft 0kts
13-Sep-20 17:43 35.619921 -106.083246 311 6351ft 0kts
13-Sep-20 17:44 35.619921 -106.083246 311 6351ft 0kts
13-Sep-20 17:45 35.619921 -106.083246 311 6351ft 0kts
13-Sep-20 17:46 35.619921 -106.083246 311 6351ft 0kts

Navigation Log

Ident Type
Flight plan parsing failed, navigation log unavailable